createdAt,value
2019-01-03T00:02:17.442Z,99108.00
2019-01-03T00:05:07.782Z,99109.00
2019-01-03T00:07:57.198Z,99108.00
2019-01-03T00:10:47.619Z,99120.00
2019-01-03T00:13:48.132Z,99107.00
2019-01-03T00:16:37.197Z,99108.00
2019-01-03T00:19:23.275Z,99118.00
2019-01-03T00:22:19.567Z,99125.00
2019-01-03T00:25:08.551Z,99133.00
2019-01-03T00:28:14.771Z,99136.00
2019-01-03T00:31:03.893Z,99132.00
2019-01-03T00:33:53.240Z,99130.00
2019-01-03T00:36:42.633Z,99127.00
2019-01-03T00:39:24.462Z,99138.00
2019-01-03T00:42:13.532Z,99148.00
2019-01-03T00:45:09.621Z,99146.00
2019-01-03T00:47:58.668Z,99154.00
2019-01-03T00:50:48.260Z,99147.00
2019-01-03T00:53:36.838Z,99167.00
2019-01-03T00:56:26.019Z,99164.00
2019-01-03T00:59:15.393Z,99173.00
2019-01-03T01:02:14.846Z,99155.00
2019-01-03T01:05:05.216Z,99180.00
2019-01-03T01:08:10.650Z,99168.00
2019-01-03T01:10:59.313Z,99183.00
2019-01-03T01:13:58.173Z,99192.00
2019-01-03T01:17:01.744Z,99185.00
2019-01-03T01:19:58.178Z,99191.00
2019-01-03T01:22:47.522Z,99194.00
2019-01-03T01:25:37.863Z,99193.00
2019-01-03T01:28:46.391Z,99187.00
2019-01-03T01:31:39.783Z,99204.00
2019-01-03T01:34:32.986Z,99217.00
2019-01-03T01:37:29.476Z,99207.00
2019-01-03T01:40:25.992Z,99212.00
2019-01-03T01:43:28.598Z,99218.00
2019-01-03T01:46:13.582Z,99217.00
2019-01-03T01:49:09.830Z,99221.00
2019-01-03T01:51:58.014Z,99212.00
2019-01-03T01:55:04.478Z,99208.00
2019-01-03T01:57:57.612Z,99230.00
2019-01-03T02:00:47.991Z,99223.00
2019-01-03T02:03:33.389Z,99234.00
2019-01-03T02:06:23.814Z,99221.00
2019-01-03T02:09:31.199Z,99239.00
2019-01-03T02:12:21.904Z,99240.00
2019-01-03T02:15:27.279Z,99231.00
2019-01-03T02:18:20.543Z,99239.00
2019-01-03T02:21:09.957Z,99248.00
2019-01-03T02:24:15.538Z,99230.00
2019-01-03T02:27:17.659Z,99237.00
2019-01-03T02:30:16.855Z,99236.00
2019-01-03T02:33:14.910Z,99217.00
2019-01-03T02:36:11.091Z,99238.00
2019-01-03T02:39:01.471Z,99232.00
2019-01-03T02:41:51.417Z,99234.00
2019-01-03T02:44:33.461Z,99235.00
2019-01-03T02:47:26.583Z,99236.00
2019-01-03T02:50:20.033Z,99236.00
2019-01-03T02:53:13.555Z,99233.00
2019-01-03T02:56:03.960Z,99231.00
2019-01-03T02:59:00.551Z,99229.00
2019-01-03T03:01:53.978Z,99227.00
2019-01-03T03:04:50.408Z,99238.00
2019-01-03T03:07:41.375Z,99226.00
2019-01-03T03:10:30.645Z,99235.00
2019-01-03T03:13:19.650Z,99237.00
2019-01-03T03:16:05.984Z,99237.00
2019-01-03T03:19:11.471Z,99234.00
2019-01-03T03:22:02.664Z,99234.00
2019-01-03T03:24:46.718Z,99225.00
2019-01-03T03:27:37.097Z,99232.00
2019-01-03T03:30:26.475Z,99215.00
2019-01-03T03:33:23.815Z,99212.00
2019-01-03T03:36:12.765Z,99209.00
2019-01-03T03:39:15.357Z,99210.00
2019-01-03T03:42:05.809Z,99215.00
2019-01-03T03:44:53.125Z,99199.00
2019-01-03T03:47:42.373Z,99196.00
2019-01-03T03:50:37.925Z,99207.00
2019-01-03T03:53:27.214Z,99199.00
2019-01-03T03:56:16.490Z,99189.00
2019-01-03T03:59:05.481Z,99198.00
2019-01-03T04:01:58.781Z,99202.00
2019-01-03T04:04:48.351Z,99196.00
2019-01-03T04:07:48.061Z,99199.00
2019-01-03T04:10:47.816Z,99187.00
2019-01-03T04:13:37.211Z,99180.00
2019-01-03T04:16:24.644Z,99191.00
2019-01-03T04:19:15.026Z,99191.00
2019-01-03T04:22:08.525Z,99196.00
2019-01-03T04:25:00.793Z,99185.00
2019-01-03T04:27:50.060Z,99193.00
2019-01-03T04:30:36.881Z,99190.00
2019-01-03T04:33:30.235Z,99205.00
2019-01-03T04:36:29.440Z,99196.00
2019-01-03T04:39:21.009Z,99205.00
2019-01-03T04:42:09.516Z,99226.00
2019-01-03T04:44:58.919Z,99203.00
2019-01-03T04:47:48.003Z,99199.00
2019-01-03T04:50:41.414Z,99221.00
2019-01-03T04:53:50.247Z,99206.00
2019-01-03T04:56:43.802Z,99207.00
2019-01-03T04:59:31.569Z,99225.00
2019-01-03T05:02:37.201Z,99228.00
2019-01-03T05:05:43.098Z,99234.00
2019-01-03T05:08:42.832Z,99239.00
2019-01-03T05:11:32.668Z,99244.00
2019-01-03T05:14:29.401Z,99253.00
2019-01-03T05:17:18.664Z,99248.00
2019-01-03T05:20:07.932Z,99240.00
2019-01-03T05:22:57.252Z,99238.00
2019-01-03T05:25:46.724Z,99244.00
2019-01-03T05:28:36.050Z,99247.00
2019-01-03T05:31:29.516Z,99233.00
2019-01-03T05:34:31.991Z,99237.00
2019-01-03T05:37:28.428Z,99247.00
2019-01-03T05:40:18.809Z,99245.00
2019-01-03T05:43:27.310Z,99235.00
2019-01-03T05:46:23.117Z,99245.00
2019-01-03T05:49:12.236Z,99244.00
2019-01-03T05:52:05.671Z,99253.00
2019-01-03T05:54:55.120Z,99257.00
2019-01-03T05:57:44.303Z,99270.00
2019-01-03T06:00:33.442Z,99268.00
2019-01-03T06:03:16.166Z,99261.00
2019-01-03T06:06:05.326Z,99268.00
2019-01-03T06:08:55.128Z,99281.00
2019-01-03T06:11:48.300Z,99269.00
2019-01-03T06:14:37.276Z,99273.00
2019-01-03T06:17:29.790Z,99268.00
2019-01-03T06:20:32.485Z,99261.00
2019-01-03T06:23:41.067Z,99267.00
2019-01-03T06:26:40.614Z,99259.00
2019-01-03T06:29:42.976Z,99268.00
2019-01-03T06:32:34.117Z,99261.00
2019-01-03T06:35:23.344Z,99255.00
2019-01-03T06:38:16.752Z,99266.00
2019-01-03T06:41:06.398Z,99272.00
2019-01-03T06:43:55.481Z,99278.00
2019-01-03T06:46:40.675Z,99259.00
2019-01-03T06:49:33.834Z,99255.00
2019-01-03T06:52:37.936Z,99266.00
2019-01-03T06:55:28.306Z,99275.00
2019-01-03T06:58:34.078Z,99260.00
2019-01-03T07:01:42.968Z,99268.00
2019-01-03T07:04:28.374Z,99265.00
2019-01-03T07:07:18.747Z,99288.00
2019-01-03T07:10:07.683Z,99283.00
2019-01-03T07:13:01.145Z,99277.00
2019-01-03T07:15:47.678Z,99291.00
2019-01-03T07:18:44.121Z,99294.00
2019-01-03T07:21:34.103Z,99315.00
2019-01-03T07:24:23.403Z,99295.00
2019-01-03T07:27:22.643Z,99309.00
2019-01-03T07:30:19.249Z,99295.00
2019-01-03T07:33:08.275Z,99308.00
2019-01-03T07:36:01.632Z,99306.00
2019-01-03T07:38:46.399Z,99320.00
2019-01-03T07:41:35.505Z,99316.00
2019-01-03T07:44:38.242Z,99306.00
2019-01-03T07:47:46.803Z,99309.00
2019-01-03T07:50:39.915Z,99316.00
2019-01-03T07:53:45.174Z,99326.00
2019-01-03T07:56:41.557Z,99335.00
2019-01-03T07:59:30.965Z,99312.00
2019-01-03T08:02:20.275Z,99322.00
2019-01-03T08:05:19.586Z,99329.00
2019-01-03T08:08:15.828Z,99349.00
2019-01-03T08:11:04.987Z,99338.00
2019-01-03T08:14:13.558Z,99341.00
2019-01-03T08:17:02.577Z,99344.00
2019-01-03T08:19:53.135Z,99341.00
2019-01-03T08:22:46.308Z,99336.00
2019-01-03T08:25:42.535Z,99344.00
2019-01-03T08:28:39.260Z,99331.00
2019-01-03T08:31:44.659Z,99333.00
2019-01-03T08:34:35.081Z,99331.00
2019-01-03T08:37:24.181Z,99326.00
2019-01-03T08:40:20.857Z,99338.00
2019-01-03T08:43:10.067Z,99338.00
2019-01-03T08:46:09.508Z,99349.00
2019-01-03T08:49:00.681Z,99345.00
2019-01-03T08:51:59.300Z,99352.00
2019-01-03T08:54:56.220Z,99350.00
2019-01-03T08:57:46.631Z,99346.00
2019-01-03T09:00:52.297Z,99353.00
2019-01-03T09:03:58.098Z,99346.00
2019-01-03T09:06:47.300Z,99346.00
2019-01-03T09:09:40.766Z,99356.00
2019-01-03T09:12:31.170Z,99355.00
2019-01-03T09:15:22.604Z,99351.00
2019-01-03T09:18:12.830Z,99358.00
2019-01-03T09:21:09.383Z,99352.00
2019-01-03T09:24:06.085Z,99351.00
2019-01-03T09:27:05.588Z,99343.00
2019-01-03T09:29:50.690Z,99342.00
2019-01-03T09:32:39.346Z,99345.00
2019-01-03T09:35:29.786Z,99343.00
2019-01-03T09:38:18.921Z,99351.00
2019-01-03T09:41:04.381Z,99358.00
2019-01-03T09:43:48.910Z,99342.00
2019-01-03T09:46:20.382Z,99341.00
2019-01-03T09:48:51.860Z,99351.00
2019-01-03T09:51:23.293Z,99352.00
2019-01-03T09:53:54.762Z,99348.00
2019-01-03T09:56:26.244Z,99344.00
2019-01-03T09:58:58.637Z,99349.00
2019-01-03T10:01:30.106Z,99336.00
2019-01-03T10:04:01.598Z,99329.00
2019-01-03T10:06:33.080Z,99331.00
2019-01-03T10:09:06.672Z,99323.00
2019-01-03T10:11:38.089Z,99315.00
2019-01-03T10:14:10.106Z,99320.00
2019-01-03T10:16:41.561Z,99313.00
2019-01-03T10:19:13.120Z,99324.00
2019-01-03T10:21:44.560Z,99315.00
2019-01-03T10:24:16.098Z,99327.00
2019-01-03T10:26:47.548Z,99313.00
2019-01-03T10:29:19.046Z,99318.00
2019-01-03T10:31:50.510Z,99312.00
2019-01-03T10:34:21.950Z,99310.00
2019-01-03T10:36:53.460Z,99304.00
2019-01-03T10:39:24.934Z,99295.00
2019-01-03T10:41:56.390Z,99293.00
2019-01-03T10:44:27.909Z,99307.00
2019-01-03T10:46:59.368Z,99295.00
2019-01-03T10:49:30.859Z,99306.00
2019-01-03T10:52:02.313Z,99300.00
2019-01-03T10:54:33.802Z,99289.00
2019-01-03T10:57:05.325Z,99276.00
2019-01-03T10:59:37.882Z,99283.00
2019-01-03T11:02:09.361Z,99277.00
2019-01-03T11:04:40.817Z,99265.00
2019-01-03T11:07:12.251Z,99268.00
2019-01-03T11:09:44.696Z,99259.00
2019-01-03T11:12:16.118Z,99254.00
2019-01-03T11:14:47.540Z,99260.00
2019-01-03T11:17:18.996Z,99252.00
2019-01-03T11:19:50.482Z,99234.00
2019-01-03T11:22:21.922Z,99230.00
2019-01-03T11:24:53.607Z,99230.00
2019-01-03T11:27:25.055Z,99218.00
2019-01-03T11:29:56.484Z,99223.00
2019-01-03T11:32:27.905Z,99218.00
2019-01-03T11:34:59.385Z,99221.00
2019-01-03T11:37:30.838Z,99213.00
2019-01-03T11:40:02.452Z,99212.00
2019-01-03T11:42:33.917Z,99208.00
2019-01-03T11:45:05.595Z,99203.00
2019-01-03T11:47:37.023Z,99212.00
2019-01-03T11:50:10.198Z,99206.00
2019-01-03T11:52:41.651Z,99192.00
2019-01-03T11:55:13.123Z,99200.00
2019-01-03T11:57:44.552Z,99193.00
2019-01-03T12:00:30.048Z,99182.00
2019-01-03T12:03:01.479Z,99185.00
2019-01-03T12:05:32.940Z,99174.00
2019-01-03T12:08:04.376Z,99173.00
2019-01-03T12:10:36.221Z,99164.00
2019-01-03T12:13:07.722Z,99181.00
2019-01-03T12:15:39.134Z,99164.00
2019-01-03T12:18:10.564Z,99176.00
2019-01-03T12:20:41.965Z,99171.00
2019-01-03T12:23:13.435Z,99173.00
2019-01-03T12:25:44.866Z,99170.00
2019-01-03T12:28:16.266Z,99160.00
2019-01-03T12:30:47.756Z,99170.00
2019-01-03T12:33:19.174Z,99182.00
2019-01-03T12:35:50.712Z,99167.00
2019-01-03T12:38:22.168Z,99167.00
2019-01-03T12:40:53.615Z,99146.00
2019-01-03T12:43:25.213Z,99147.00
2019-01-03T12:45:56.600Z,99151.00
2019-01-03T12:48:28.041Z,99153.00
2019-01-03T12:50:59.511Z,99161.00
2019-01-03T12:53:30.957Z,99152.00
2019-01-03T12:56:02.439Z,99168.00
2019-01-03T12:58:33.856Z,99158.00
2019-01-03T13:01:05.338Z,99161.00
2019-01-03T13:03:36.801Z,99152.00
2019-01-03T13:06:08.297Z,99149.00
2019-01-03T13:08:39.790Z,99170.00
2019-01-03T13:11:11.244Z,99168.00
2019-01-03T13:13:42.770Z,99158.00
2019-01-03T13:16:14.344Z,99173.00
2019-01-03T13:18:45.776Z,99158.00
2019-01-03T13:21:17.365Z,99166.00
2019-01-03T13:23:48.908Z,99171.00
2019-01-03T13:26:20.457Z,99168.00
2019-01-03T13:28:51.952Z,99165.00
2019-01-03T13:31:23.518Z,99183.00
2019-01-03T13:33:54.990Z,99186.00
2019-01-03T13:36:26.481Z,99175.00
2019-01-03T13:38:57.914Z,99166.00
2019-01-03T13:41:29.446Z,99179.00
2019-01-03T13:44:00.922Z,99160.00
2019-01-03T13:46:33.322Z,99168.00
2019-01-03T13:49:04.778Z,99154.00
2019-01-03T13:51:36.341Z,99163.00
2019-01-03T13:54:07.876Z,99149.00
2019-01-03T13:56:39.378Z,99148.00
2019-01-03T13:59:10.864Z,99153.00
2019-01-03T14:01:42.486Z,99147.00
2019-01-03T14:04:13.941Z,99140.00
2019-01-03T14:06:45.460Z,99153.00
2019-01-03T14:09:16.928Z,99140.00
2019-01-03T14:11:48.438Z,99154.00
2019-01-03T14:14:19.926Z,99150.00
2019-01-03T14:16:51.424Z,99165.00
2019-01-03T14:19:22.874Z,99158.00
2019-01-03T14:21:54.358Z,99159.00
2019-01-03T14:24:26.079Z,99155.00
2019-01-03T14:26:57.653Z,99163.00
2019-01-03T14:29:29.163Z,99158.00
2019-01-03T14:32:00.712Z,99166.00
2019-01-03T14:34:32.230Z,99158.00
2019-01-03T14:37:03.696Z,99164.00
2019-01-03T14:39:35.142Z,99165.00
2019-01-03T14:42:06.686Z,99159.00
2019-01-03T14:44:38.145Z,99160.00
2019-01-03T14:47:32.070Z,99148.00
2019-01-03T14:50:12.840Z,99165.00
2019-01-03T14:52:44.345Z,99152.00
2019-01-03T14:55:15.855Z,99158.00
2019-01-03T14:57:47.363Z,99151.00
2019-01-03T15:00:18.863Z,99163.00
2019-01-03T15:02:50.861Z,99157.00
2019-01-03T15:05:22.287Z,99150.00
2019-01-03T15:07:53.755Z,99162.00
2019-01-03T15:10:25.292Z,99161.00
2019-01-03T15:12:56.758Z,99175.00
2019-01-03T15:15:28.258Z,99177.00
2019-01-03T15:17:59.715Z,99155.00
2019-01-03T15:20:31.180Z,99156.00
2019-01-03T15:23:02.670Z,99152.00
2019-01-03T15:25:34.171Z,99152.00
2019-01-03T15:28:05.775Z,99147.00
2019-01-03T15:30:37.237Z,99147.00
2019-01-03T15:33:08.768Z,99148.00
2019-01-03T15:35:40.250Z,99175.00
2019-01-03T15:38:11.806Z,99180.00
2019-01-03T15:40:43.323Z,99180.00
2019-01-03T15:43:23.210Z,99166.00
2019-01-03T15:45:54.823Z,99171.00
2019-01-03T15:48:26.343Z,99184.00
2019-01-03T15:50:57.957Z,99178.00
2019-01-03T15:53:29.399Z,99168.00
2019-01-03T15:56:00.979Z,99172.00
2019-01-03T15:58:32.466Z,99174.00
2019-01-03T16:01:03.959Z,99177.00
2019-01-03T16:03:35.537Z,99185.00
2019-01-03T16:06:07.079Z,99172.00
2019-01-03T16:08:38.737Z,99173.00
2019-01-03T16:11:10.139Z,99177.00
2019-01-03T16:13:41.805Z,99175.00
2019-01-03T16:16:13.325Z,99171.00
2019-01-03T16:18:44.795Z,99182.00
2019-01-03T16:21:16.340Z,99172.00
2019-01-03T16:23:47.977Z,99170.00
2019-01-03T16:26:19.466Z,99195.00
2019-01-03T16:28:50.991Z,99195.00
2019-01-03T16:31:22.580Z,99179.00
2019-01-03T16:33:54.126Z,99198.00
2019-01-03T16:36:25.688Z,99183.00
2019-01-03T16:38:57.153Z,99175.00
2019-01-03T16:41:28.645Z,99189.00
2019-01-03T16:44:00.115Z,99168.00
2019-01-03T16:46:31.606Z,99159.00
2019-01-03T16:49:03.166Z,99173.00
2019-01-03T16:51:34.699Z,99172.00
2019-01-03T16:54:06.201Z,99169.00
2019-01-03T16:56:37.832Z,99168.00
2019-01-03T16:59:09.311Z,99183.00
2019-01-03T17:01:40.847Z,99182.00
2019-01-03T17:04:12.366Z,99176.00
2019-01-03T17:06:43.871Z,99181.00
2019-01-03T17:09:15.383Z,99175.00
2019-01-03T17:11:46.894Z,99176.00
2019-01-03T17:14:18.348Z,99187.00
2019-01-03T17:16:49.900Z,99182.00
2019-01-03T17:19:21.373Z,99166.00
2019-01-03T17:21:52.929Z,99172.00
2019-01-03T17:24:24.384Z,99160.00
2019-01-03T17:26:55.849Z,99171.00
2019-01-03T17:29:27.320Z,99178.00
2019-01-03T17:31:58.815Z,99180.00
2019-01-03T17:34:30.318Z,99176.00
2019-01-03T17:37:01.787Z,99163.00
2019-01-03T17:39:34.524Z,99181.00
2019-01-03T17:42:06.123Z,99182.00
2019-01-03T17:44:37.631Z,99174.00
2019-01-03T17:47:09.106Z,99164.00
2019-01-03T17:49:40.613Z,99167.00
2019-01-03T17:52:12.113Z,99177.00
2019-01-03T17:54:43.589Z,99188.00
2019-01-03T17:57:15.041Z,99191.00
2019-01-03T17:59:46.544Z,99197.00
2019-01-03T18:02:17.976Z,99188.00
2019-01-03T18:04:49.434Z,99178.00
2019-01-03T18:07:20.997Z,99195.00
2019-01-03T18:09:52.438Z,99181.00
2019-01-03T18:12:23.982Z,99181.00
2019-01-03T18:14:55.556Z,99196.00
2019-01-03T18:17:27.057Z,99191.00
2019-01-03T18:19:58.505Z,99214.00
2019-01-03T18:22:29.939Z,99230.00
2019-01-03T18:25:01.434Z,99220.00
2019-01-03T18:27:32.891Z,99229.00
2019-01-03T18:30:04.455Z,99218.00
2019-01-03T18:32:35.907Z,99219.00
2019-01-03T18:35:07.434Z,99218.00
2019-01-03T18:37:38.852Z,99224.00
2019-01-03T18:40:16.367Z,99214.00
2019-01-03T18:42:48.985Z,99220.00
2019-01-03T18:45:24.458Z,99208.00
2019-01-03T18:47:55.903Z,99219.00
2019-01-03T18:50:27.411Z,99212.00
2019-01-03T18:52:58.862Z,99210.00
2019-01-03T18:55:30.362Z,99224.00
2019-01-03T18:58:01.795Z,99209.00
2019-01-03T19:00:33.248Z,99199.00
2019-01-03T19:03:04.771Z,99204.00
2019-01-03T19:05:36.243Z,99200.00
2019-01-03T19:08:07.690Z,99209.00
2019-01-03T19:10:39.175Z,99201.00
2019-01-03T19:13:10.695Z,99197.00
2019-01-03T19:15:42.126Z,99196.00
2019-01-03T19:18:13.606Z,99189.00
2019-01-03T19:20:45.042Z,99180.00
2019-01-03T19:23:16.705Z,99178.00
2019-01-03T19:25:48.131Z,99179.00
2019-01-03T19:28:19.718Z,99186.00
2019-01-03T19:30:51.191Z,99182.00
2019-01-03T19:33:22.696Z,99183.00
2019-01-03T19:35:54.172Z,99164.00
2019-01-03T19:38:25.629Z,99163.00
2019-01-03T19:40:57.115Z,99178.00
2019-01-03T19:43:28.629Z,99170.00
2019-01-03T19:46:00.151Z,99180.00
2019-01-03T19:48:31.664Z,99172.00
2019-01-03T19:51:03.214Z,99156.00
2019-01-03T19:53:34.770Z,99152.00
2019-01-03T19:56:06.245Z,99165.00
2019-01-03T19:58:37.716Z,99154.00
2019-01-03T20:01:09.269Z,99156.00
2019-01-03T20:03:40.857Z,99162.00
2019-01-03T20:06:12.623Z,99159.00
2019-01-03T20:08:44.156Z,99174.00
2019-01-03T20:11:15.628Z,99186.00
2019-01-03T20:13:47.135Z,99190.00
2019-01-03T20:16:18.750Z,99209.00
2019-01-03T20:18:50.273Z,99207.00
2019-01-03T20:21:21.803Z,99202.00
2019-01-03T20:23:53.368Z,99204.00
2019-01-03T20:26:24.854Z,99213.00
2019-01-03T20:28:56.403Z,99196.00
2019-01-03T20:31:27.878Z,99199.00
2019-01-03T20:33:59.409Z,99193.00
2019-01-03T20:36:30.876Z,99189.00
2019-01-03T20:39:02.502Z,99204.00
2019-01-03T20:41:35.069Z,99192.00
2019-01-03T20:44:06.594Z,99186.00
2019-01-03T20:46:38.064Z,99172.00
2019-01-03T20:49:09.583Z,99174.00
2019-01-03T20:51:41.051Z,99175.00
2019-01-03T20:54:12.624Z,99179.00
2019-01-03T20:56:44.077Z,99173.00
2019-01-03T20:59:15.612Z,99181.00
2019-01-03T21:01:47.091Z,99183.00
2019-01-03T21:04:18.650Z,99189.00
2019-01-03T21:06:50.091Z,99191.00
2019-01-03T21:09:21.665Z,99169.00
2019-01-03T21:11:53.231Z,99179.00
2019-01-03T21:14:24.677Z,99186.00
2019-01-03T21:16:56.139Z,99191.00
2019-01-03T21:19:27.605Z,99195.00
2019-01-03T21:21:59.407Z,99189.00
2019-01-03T21:24:30.942Z,99197.00
2019-01-03T21:27:03.422Z,99198.00
2019-01-03T21:29:34.976Z,99203.00
2019-01-03T21:32:06.524Z,99203.00
2019-01-03T21:34:38.029Z,99196.00
2019-01-03T21:37:09.486Z,99217.00
2019-01-03T21:39:40.988Z,99223.00
2019-01-03T21:42:12.554Z,99208.00
2019-01-03T21:44:44.117Z,99221.00
2019-01-03T21:47:15.634Z,99208.00
2019-01-03T21:49:47.351Z,99221.00
2019-01-03T21:52:18.925Z,99210.00
2019-01-03T21:54:51.458Z,99223.00
2019-01-03T21:57:23.059Z,99237.00
2019-01-03T21:59:54.702Z,99214.00
2019-01-03T22:02:26.259Z,99218.00
2019-01-03T22:04:57.805Z,99217.00
2019-01-03T22:07:29.424Z,99235.00
2019-01-03T22:10:00.976Z,99236.00
2019-01-03T22:12:32.407Z,99230.00
2019-01-03T22:15:03.986Z,99234.00
2019-01-03T22:17:35.498Z,99228.00
2019-01-03T22:20:08.603Z,99218.00
2019-01-03T22:22:40.049Z,99229.00
2019-01-03T22:25:11.628Z,99215.00
2019-01-03T22:27:43.096Z,99219.00
2019-01-03T22:30:14.564Z,99216.00
2019-01-03T22:32:46.082Z,99217.00
2019-01-03T22:35:17.520Z,99210.00
2019-01-03T22:37:48.991Z,99211.00
2019-01-03T22:40:20.462Z,99200.00
2019-01-03T22:42:51.933Z,99203.00
2019-01-03T22:45:23.445Z,99199.00
2019-01-03T22:47:54.921Z,99201.00
2019-01-03T22:50:26.478Z,99208.00
2019-01-03T22:52:57.922Z,99216.00
2019-01-03T22:55:29.449Z,99206.00
2019-01-03T22:58:01.168Z,99204.00
2019-01-03T23:00:43.745Z,99215.00
2019-01-03T23:03:15.321Z,99211.00
2019-01-03T23:05:46.807Z,99208.00
2019-01-03T23:08:18.378Z,99206.00
2019-01-03T23:10:49.784Z,99214.00
2019-01-03T23:13:21.337Z,99200.00
2019-01-03T23:15:52.863Z,99208.00
2019-01-03T23:18:31.224Z,99211.00
2019-01-03T23:20:57.676Z,99218.00
2019-01-03T23:23:29.153Z,99216.00
2019-01-03T23:26:02.330Z,99218.00
2019-01-03T23:28:33.835Z,99211.00
2019-01-03T23:31:05.494Z,99211.00
2019-01-03T23:33:37.027Z,99228.00
2019-01-03T23:36:08.517Z,99233.00
2019-01-03T23:38:40.012Z,99233.00
2019-01-03T23:41:11.692Z,99242.00
2019-01-03T23:43:43.196Z,99244.00
2019-01-03T23:46:14.739Z,99229.00
2019-01-03T23:48:46.178Z,99228.00
2019-01-03T23:51:17.721Z,99250.00
2019-01-03T23:53:49.228Z,99235.00
2019-01-03T23:56:20.763Z,99244.00
2019-01-03T23:58:52.208Z,99223.00
